sensor_id;sensor_type;location;lat;lon;timestamp;P1;durP1;ratioP1;P2;durP2;ratioP2
55210;SDS011;41082;52.822;6.666;2022-08-11T00:00:16;3.08;;;2.45;;
55210;SDS011;41082;52.822;6.666;2022-08-11T00:02:43;3.40;;;2.63;;
55210;SDS011;41082;52.822;6.666;2022-08-11T00:05:14;3.78;;;2.85;;
55210;SDS011;41082;52.822;6.666;2022-08-11T00:07:42;3.97;;;2.92;;
55210;SDS011;41082;52.822;6.666;2022-08-11T00:10:10;5.15;;;3.17;;
55210;SDS011;41082;52.822;6.666;2022-08-11T00:12:37;3.38;;;2.75;;
55210;SDS011;41082;52.822;6.666;2022-08-11T00:15:04;3.13;;;2.65;;
55210;SDS011;41082;52.822;6.666;2022-08-11T00:17:30;4.75;;;2.92;;
55210;SDS011;41082;52.822;6.666;2022-08-11T00:20:05;4.60;;;3.15;;
55210;SDS011;41082;52.822;6.666;2022-08-11T00:22:33;2.92;;;2.58;;
55210;SDS011;41082;52.822;6.666;2022-08-11T00:25:07;7.18;;;3.40;;
55210;SDS011;41082;52.822;6.666;2022-08-11T00:27:35;5.60;;;3.40;;
55210;SDS011;41082;52.822;6.666;2022-08-11T00:30:04;3.78;;;3.10;;
55210;SDS011;41082;52.822;6.666;2022-08-11T00:32:30;4.05;;;3.22;;
55210;SDS011;41082;52.822;6.666;2022-08-11T00:34:57;3.08;;;2.75;;
55210;SDS011;41082;52.822;6.666;2022-08-11T00:37:25;5.43;;;3.70;;
55210;SDS011;41082;52.822;6.666;2022-08-11T00:39:52;2.85;;;2.60;;
55210;SDS011;41082;52.822;6.666;2022-08-11T00:45:12;5.75;;;3.40;;
55210;SDS011;41082;52.822;6.666;2022-08-11T00:47:42;4.20;;;3.22;;
55210;SDS011;41082;52.822;6.666;2022-08-11T00:56:12;4.35;;;3.47;;
55210;SDS011;41082;52.822;6.666;2022-08-11T01:10:00;9.20;;;3.47;;
55210;SDS011;41082;52.822;6.666;2022-08-11T01:18:11;5.97;;;3.50;;
55210;SDS011;41082;52.822;6.666;2022-08-11T01:35:41;4.90;;;3.75;;
55210;SDS011;41082;52.822;6.666;2022-08-11T01:46:46;6.30;;;2.95;;
55210;SDS011;41082;52.822;6.666;2022-08-11T01:52:28;3.47;;;3.17;;
55210;SDS011;41082;52.822;6.666;2022-08-11T01:55:11;5.72;;;3.47;;
55210;SDS011;41082;52.822;6.666;2022-08-11T02:00:34;5.57;;;3.53;;
55210;SDS011;41082;52.822;6.666;2022-08-11T02:03:17;4.07;;;3.38;;
55210;SDS011;41082;52.822;6.666;2022-08-11T02:06:01;4.32;;;3.92;;
55210;SDS011;41082;52.822;6.666;2022-08-11T02:11:30;3.22;;;2.97;;
55210;SDS011;41082;52.822;6.666;2022-08-11T02:17:10;3.60;;;3.13;;
55210;SDS011;41082;52.822;6.666;2022-08-11T02:19:46;4.05;;;3.58;;
55210;SDS011;41082;52.822;6.666;2022-08-11T02:22:54;3.65;;;3.15;;
55210;SDS011;41082;52.822;6.666;2022-08-11T02:26:01;3.75;;;3.35;;
55210;SDS011;41082;52.822;6.666;2022-08-11T02:31:46;6.13;;;4.85;;
55210;SDS011;41082;52.822;6.666;2022-08-11T02:34:44;3.90;;;3.50;;
55210;SDS011;41082;52.822;6.666;2022-08-11T02:37:19;3.60;;;3.30;;
55210;SDS011;41082;52.822;6.666;2022-08-11T02:42:37;3.70;;;3.20;;
55210;SDS011;41082;52.822;6.666;2022-08-11T02:45:12;4.10;;;2.72;;
55210;SDS011;41082;52.822;6.666;2022-08-11T02:47:55;3.33;;;3.10;;
55210;SDS011;41082;52.822;6.666;2022-08-11T02:51:05;4.70;;;3.88;;
55210;SDS011;41082;52.822;6.666;2022-08-11T02:56:40;4.57;;;3.70;;
55210;SDS011;41082;52.822;6.666;2022-08-11T02:59:39;6.45;;;5.05;;
55210;SDS011;41082;52.822;6.666;2022-08-11T03:05:04;6.90;;;4.97;;
55210;SDS011;41082;52.822;6.666;2022-08-11T03:10:10;8.55;;;5.20;;
55210;SDS011;41082;52.822;6.666;2022-08-11T03:13:38;6.97;;;5.40;;
55210;SDS011;41082;52.822;6.666;2022-08-11T03:16:28;5.80;;;4.90;;
55210;SDS011;41082;52.822;6.666;2022-08-11T03:32:57;6.68;;;6.07;;
55210;SDS011;41082;52.822;6.666;2022-08-11T03:38:41;7.40;;;6.60;;
55210;SDS011;41082;52.822;6.666;2022-08-11T03:41:35;9.18;;;6.53;;
55210;SDS011;41082;52.822;6.666;2022-08-11T03:50:01;7.63;;;6.82;;
55210;SDS011;41082;52.822;6.666;2022-08-11T03:52:47;7.35;;;6.65;;
55210;SDS011;41082;52.822;6.666;2022-08-11T04:06:48;7.03;;;6.40;;
55210;SDS011;41082;52.822;6.666;2022-08-11T04:15:44;7.68;;;6.65;;
55210;SDS011;41082;52.822;6.666;2022-08-11T04:30:43;8.40;;;7.60;;
55210;SDS011;41082;52.822;6.666;2022-08-11T04:33:38;7.93;;;7.00;;
55210;SDS011;41082;52.822;6.666;2022-08-11T04:39:33;7.78;;;7.07;;
55210;SDS011;41082;52.822;6.666;2022-08-11T04:42:45;9.00;;;8.10;;
55210;SDS011;41082;52.822;6.666;2022-08-11T04:55:07;9.40;;;7.22;;
55210;SDS011;41082;52.822;6.666;2022-08-11T04:58:40;10.18;;;9.18;;
55210;SDS011;41082;52.822;6.666;2022-08-11T05:07:07;10.27;;;8.32;;
55210;SDS011;41082;52.822;6.666;2022-08-11T05:12:56;10.07;;;8.23;;
55210;SDS011;41082;52.822;6.666;2022-08-11T05:15:46;9.95;;;8.95;;
55210;SDS011;41082;52.822;6.666;2022-08-11T05:18:34;8.82;;;7.93;;
55210;SDS011;41082;52.822;6.666;2022-08-11T05:21:30;9.70;;;8.77;;
55210;SDS011;41082;52.822;6.666;2022-08-11T05:24:20;9.32;;;8.18;;
55210;SDS011;41082;52.822;6.666;2022-08-11T05:27:20;9.80;;;8.80;;
55210;SDS011;41082;52.822;6.666;2022-08-11T05:30:11;16.05;;;9.73;;
55210;SDS011;41082;52.822;6.666;2022-08-11T05:35:43;11.85;;;9.10;;
55210;SDS011;41082;52.822;6.666;2022-08-11T05:38:23;10.70;;;9.60;;
55210;SDS011;41082;52.822;6.666;2022-08-11T05:41:12;11.23;;;8.75;;
55210;SDS011;41082;52.822;6.666;2022-08-11T05:44:00;11.20;;;9.23;;
55210;SDS011;41082;52.822;6.666;2022-08-11T05:46:46;10.57;;;9.48;;
55210;SDS011;41082;52.822;6.666;2022-08-11T05:49:32;10.13;;;8.77;;
55210;SDS011;41082;52.822;6.666;2022-08-11T05:52:19;12.60;;;9.25;;
55210;SDS011;41082;52.822;6.666;2022-08-11T05:55:06;10.75;;;9.45;;
55210;SDS011;41082;52.822;6.666;2022-08-11T05:57:59;10.13;;;8.80;;
55210;SDS011;41082;52.822;6.666;2022-08-11T06:00:27;8.95;;;8.02;;
55210;SDS011;41082;52.822;6.666;2022-08-11T06:02:58;9.65;;;8.40;;
55210;SDS011;41082;52.822;6.666;2022-08-11T06:05:34;12.90;;;8.82;;
55210;SDS011;41082;52.822;6.666;2022-08-11T06:08:06;11.55;;;8.60;;
55210;SDS011;41082;52.822;6.666;2022-08-11T06:10:34;11.00;;;9.60;;
55210;SDS011;41082;52.822;6.666;2022-08-11T06:13:02;12.30;;;8.38;;
55210;SDS011;41082;52.822;6.666;2022-08-11T06:15:31;8.52;;;7.07;;
55210;SDS011;41082;52.822;6.666;2022-08-11T06:17:59;7.88;;;7.03;;
55210;SDS011;41082;52.822;6.666;2022-08-11T06:20:26;9.82;;;7.53;;
55210;SDS011;41082;52.822;6.666;2022-08-11T06:23:04;7.95;;;6.38;;
55210;SDS011;41082;52.822;6.666;2022-08-11T06:25:32;7.28;;;6.00;;
55210;SDS011;41082;52.822;6.666;2022-08-11T06:28:01;10.32;;;7.18;;
55210;SDS011;41082;52.822;6.666;2022-08-11T06:30:36;7.97;;;5.65;;
55210;SDS011;41082;52.822;6.666;2022-08-11T06:33:08;10.27;;;7.18;;
55210;SDS011;41082;52.822;6.666;2022-08-11T06:35:56;7.30;;;6.20;;
55210;SDS011;41082;52.822;6.666;2022-08-11T06:41:44;7.68;;;6.10;;
55210;SDS011;41082;52.822;6.666;2022-08-11T06:44:29;6.93;;;5.03;;
55210;SDS011;41082;52.822;6.666;2022-08-11T06:47:05;7.05;;;5.85;;
55210;SDS011;41082;52.822;6.666;2022-08-11T06:49:36;6.25;;;5.07;;
55210;SDS011;41082;52.822;6.666;2022-08-11T06:52:29;6.03;;;4.65;;
55210;SDS011;41082;52.822;6.666;2022-08-11T06:54:59;5.30;;;4.25;;
55210;SDS011;41082;52.822;6.666;2022-08-11T06:57:31;4.90;;;4.50;;
55210;SDS011;41082;52.822;6.666;2022-08-11T07:00:37;6.07;;;4.65;;
55210;SDS011;41082;52.822;6.666;2022-08-11T07:03:05;5.40;;;4.65;;
55210;SDS011;41082;52.822;6.666;2022-08-11T07:14:33;5.68;;;4.60;;
55210;SDS011;41082;52.822;6.666;2022-08-11T07:17:20;5.20;;;4.70;;
55210;SDS011;41082;52.822;6.666;2022-08-11T07:19:50;5.72;;;4.15;;
55210;SDS011;41082;52.822;6.666;2022-08-11T07:22:39;8.05;;;4.85;;
55210;SDS011;41082;52.822;6.666;2022-08-11T07:25:38;6.05;;;3.63;;
55210;SDS011;41082;52.822;6.666;2022-08-11T07:28:27;5.05;;;3.33;;
55210;SDS011;41082;52.822;6.666;2022-08-11T07:31:13;4.40;;;3.15;;
55210;SDS011;41082;52.822;6.666;2022-08-11T07:33:46;5.65;;;2.75;;
55210;SDS011;41082;52.822;6.666;2022-08-11T07:36:15;4.60;;;2.50;;
55210;SDS011;41082;52.822;6.666;2022-08-11T07:38:43;5.32;;;2.30;;
55210;SDS011;41082;52.822;6.666;2022-08-11T07:41:18;2.60;;;2.30;;
55210;SDS011;41082;52.822;6.666;2022-08-11T07:43:54;4.13;;;2.60;;
55210;SDS011;41082;52.822;6.666;2022-08-11T07:46:43;4.85;;;2.28;;
55210;SDS011;41082;52.822;6.666;2022-08-11T07:49:31;2.88;;;2.15;;
55210;SDS011;41082;52.822;6.666;2022-08-11T07:52:18;7.22;;;1.70;;
55210;SDS011;41082;52.822;6.666;2022-08-11T07:54:54;4.93;;;1.75;;
55210;SDS011;41082;52.822;6.666;2022-08-11T07:57:23;5.47;;;1.95;;
55210;SDS011;41082;52.822;6.666;2022-08-11T08:00:08;3.80;;;1.10;;
55210;SDS011;41082;52.822;6.666;2022-08-11T08:02:53;1.52;;;0.73;;
55210;SDS011;41082;52.822;6.666;2022-08-11T08:05:38;3.63;;;0.90;;
55210;SDS011;41082;52.822;6.666;2022-08-11T08:08:24;3.20;;;1.20;;
55210;SDS011;41082;52.822;6.666;2022-08-11T08:11:09;2.63;;;0.93;;
55210;SDS011;41082;52.822;6.666;2022-08-11T08:13:53;2.38;;;0.80;;
55210;SDS011;41082;52.822;6.666;2022-08-11T08:16:38;4.72;;;0.82;;
55210;SDS011;41082;52.822;6.666;2022-08-11T08:19:24;2.08;;;0.70;;
55210;SDS011;41082;52.822;6.666;2022-08-11T08:21:50;1.92;;;0.68;;
55210;SDS011;41082;52.822;6.666;2022-08-11T08:24:17;2.08;;;0.50;;
55210;SDS011;41082;52.822;6.666;2022-08-11T08:26:46;2.55;;;0.80;;
55210;SDS011;41082;52.822;6.666;2022-08-11T08:29:22;4.00;;;0.60;;
55210;SDS011;41082;52.822;6.666;2022-08-11T08:32:07;2.15;;;0.88;;
55210;SDS011;41082;52.822;6.666;2022-08-11T08:34:38;1.55;;;0.43;;
55210;SDS011;41082;52.822;6.666;2022-08-11T08:37:07;2.42;;;0.57;;
55210;SDS011;41082;52.822;6.666;2022-08-11T08:39:33;2.92;;;0.55;;
55210;SDS011;41082;52.822;6.666;2022-08-11T08:42:03;2.15;;;0.40;;
55210;SDS011;41082;52.822;6.666;2022-08-11T08:44:49;2.13;;;0.40;;
55210;SDS011;41082;52.822;6.666;2022-08-11T08:47:18;3.30;;;0.40;;
55210;SDS011;41082;52.822;6.666;2022-08-11T08:49:45;2.35;;;0.40;;
55210;SDS011;41082;52.822;6.666;2022-08-11T08:52:17;3.67;;;0.55;;
55210;SDS011;41082;52.822;6.666;2022-08-11T08:54:47;3.35;;;0.88;;
55210;SDS011;41082;52.822;6.666;2022-08-11T08:57:18;3.20;;;0.30;;
55210;SDS011;41082;52.822;6.666;2022-08-11T08:59:46;2.83;;;0.75;;
55210;SDS011;41082;52.822;6.666;2022-08-11T09:02:13;3.22;;;0.55;;
55210;SDS011;41082;52.822;6.666;2022-08-11T09:04:42;2.75;;;0.52;;
55210;SDS011;41082;52.822;6.666;2022-08-11T09:07:10;1.85;;;0.30;;
55210;SDS011;41082;52.822;6.666;2022-08-11T09:09:41;2.92;;;0.40;;
55210;SDS011;41082;52.822;6.666;2022-08-11T09:12:14;2.65;;;0.40;;
55210;SDS011;41082;52.822;6.666;2022-08-11T09:14:42;1.38;;;0.30;;
55210;SDS011;41082;52.822;6.666;2022-08-11T09:20:17;2.63;;;0.40;;
55210;SDS011;41082;52.822;6.666;2022-08-11T09:22:45;3.88;;;0.52;;
55210;SDS011;41082;52.822;6.666;2022-08-11T09:25:32;1.13;;;0.50;;
55210;SDS011;41082;52.822;6.666;2022-08-11T09:28:17;1.88;;;0.60;;
55210;SDS011;41082;52.822;6.666;2022-08-11T09:30:47;3.15;;;0.63;;
55210;SDS011;41082;52.822;6.666;2022-08-11T09:33:19;6.10;;;0.85;;
55210;SDS011;41082;52.822;6.666;2022-08-11T09:35:46;3.70;;;0.73;;
55210;SDS011;41082;52.822;6.666;2022-08-11T09:38:15;2.03;;;0.50;;
55210;SDS011;41082;52.822;6.666;2022-08-11T09:41:01;2.42;;;0.57;;
55210;SDS011;41082;52.822;6.666;2022-08-11T09:43:29;4.65;;;0.60;;
55210;SDS011;41082;52.822;6.666;2022-08-11T09:46:14;2.85;;;0.43;;
55210;SDS011;41082;52.822;6.666;2022-08-11T09:48:45;1.85;;;0.52;;
55210;SDS011;41082;52.822;6.666;2022-08-11T09:51:12;2.22;;;0.60;;
55210;SDS011;41082;52.822;6.666;2022-08-11T09:53:39;3.30;;;0.70;;
55210;SDS011;41082;52.822;6.666;2022-08-11T09:56:10;3.50;;;0.60;;
55210;SDS011;41082;52.822;6.666;2022-08-11T09:58:58;2.83;;;0.57;;
55210;SDS011;41082;52.822;6.666;2022-08-11T10:01:27;4.50;;;0.50;;
55210;SDS011;41082;52.822;6.666;2022-08-11T10:03:58;2.75;;;0.50;;
55210;SDS011;41082;52.822;6.666;2022-08-11T10:06:28;7.95;;;0.50;;
55210;SDS011;41082;52.822;6.666;2022-08-11T10:09:15;1.23;;;0.40;;
55210;SDS011;41082;52.822;6.666;2022-08-11T10:11:43;1.45;;;0.60;;
55210;SDS011;41082;52.822;6.666;2022-08-11T10:14:10;2.58;;;0.50;;
55210;SDS011;41082;52.822;6.666;2022-08-11T10:16:54;2.53;;;0.40;;
55210;SDS011;41082;52.822;6.666;2022-08-11T10:19:21;2.35;;;0.50;;
55210;SDS011;41082;52.822;6.666;2022-08-11T10:21:51;1.98;;;0.45;;
55210;SDS011;41082;52.822;6.666;2022-08-11T10:24:40;2.40;;;0.63;;
55210;SDS011;41082;52.822;6.666;2022-08-11T10:27:26;3.75;;;0.40;;
55210;SDS011;41082;52.822;6.666;2022-08-11T10:29:53;2.30;;;0.40;;
55210;SDS011;41082;52.822;6.666;2022-08-11T10:32:37;1.92;;;0.50;;
55210;SDS011;41082;52.822;6.666;2022-08-11T10:35:22;2.30;;;0.50;;
55210;SDS011;41082;52.822;6.666;2022-08-11T10:37:50;1.15;;;0.40;;
55210;SDS011;41082;52.822;6.666;2022-08-11T10:40:17;0.85;;;0.30;;
55210;SDS011;41082;52.822;6.666;2022-08-11T10:42:53;2.30;;;0.38;;
55210;SDS011;41082;52.822;6.666;2022-08-11T10:45:28;4.00;;;0.50;;
55210;SDS011;41082;52.822;6.666;2022-08-11T10:48:13;0.90;;;0.50;;
55210;SDS011;41082;52.822;6.666;2022-08-11T10:50:43;3.05;;;0.40;;
55210;SDS011;41082;52.822;6.666;2022-08-11T10:53:29;3.58;;;0.38;;
55210;SDS011;41082;52.822;6.666;2022-08-11T10:56:14;2.45;;;0.30;;
55210;SDS011;41082;52.822;6.666;2022-08-11T10:59:00;0.93;;;0.40;;
55210;SDS011;41082;52.822;6.666;2022-08-11T11:01:32;4.03;;;0.40;;
55210;SDS011;41082;52.822;6.666;2022-08-11T11:04:12;2.10;;;0.40;;
55210;SDS011;41082;52.822;6.666;2022-08-11T11:09:29;4.25;;;0.50;;
55210;SDS011;41082;52.822;6.666;2022-08-11T11:12:13;1.23;;;0.30;;
55210;SDS011;41082;52.822;6.666;2022-08-11T11:15:33;2.83;;;0.40;;
55210;SDS011;41082;52.822;6.666;2022-08-11T11:20:55;4.60;;;0.30;;
55210;SDS011;41082;52.822;6.666;2022-08-11T11:37:40;2.40;;;0.40;;
55210;SDS011;41082;52.822;6.666;2022-08-11T11:40:09;3.08;;;0.38;;
55210;SDS011;41082;52.822;6.666;2022-08-11T11:42:40;2.75;;;0.50;;
55210;SDS011;41082;52.822;6.666;2022-08-11T11:45:07;4.75;;;0.40;;
55210;SDS011;41082;52.822;6.666;2022-08-11T11:47:35;5.88;;;0.35;;
55210;SDS011;41082;52.822;6.666;2022-08-11T11:50:02;1.38;;;0.35;;
55210;SDS011;41082;52.822;6.666;2022-08-11T11:52:29;2.33;;;0.50;;
55210;SDS011;41082;52.822;6.666;2022-08-11T11:54:56;8.73;;;0.40;;
55210;SDS011;41082;52.822;6.666;2022-08-11T11:57:23;3.08;;;0.52;;
55210;SDS011;41082;52.822;6.666;2022-08-11T12:00:09;1.50;;;0.32;;
55210;SDS011;41082;52.822;6.666;2022-08-11T12:02:58;2.28;;;0.40;;
55210;SDS011;41082;52.822;6.666;2022-08-11T12:05:27;4.30;;;0.30;;
55210;SDS011;41082;52.822;6.666;2022-08-11T12:07:55;1.70;;;0.30;;
55210;SDS011;41082;52.822;6.666;2022-08-11T12:13:13;2.25;;;0.30;;
55210;SDS011;41082;52.822;6.666;2022-08-11T12:16:17;3.60;;;0.40;;
55210;SDS011;41082;52.822;6.666;2022-08-11T12:18:45;2.65;;;0.30;;
55210;SDS011;41082;52.822;6.666;2022-08-11T12:21:13;0.93;;;0.25;;
55210;SDS011;41082;52.822;6.666;2022-08-11T12:23:40;4.75;;;0.60;;
55210;SDS011;41082;52.822;6.666;2022-08-11T12:26:26;1.48;;;0.30;;
55210;SDS011;41082;52.822;6.666;2022-08-11T12:29:11;1.42;;;0.40;;
55210;SDS011;41082;52.822;6.666;2022-08-11T12:31:38;2.92;;;0.35;;
55210;SDS011;41082;52.822;6.666;2022-08-11T12:34:06;1.55;;;0.20;;
55210;SDS011;41082;52.822;6.666;2022-08-11T12:36:38;0.75;;;0.30;;
55210;SDS011;41082;52.822;6.666;2022-08-11T12:39:06;1.40;;;0.60;;
55210;SDS011;41082;52.822;6.666;2022-08-11T12:41:35;2.20;;;0.40;;
55210;SDS011;41082;52.822;6.666;2022-08-11T12:44:22;3.55;;;0.40;;
55210;SDS011;41082;52.822;6.666;2022-08-11T12:47:10;1.25;;;0.25;;
55210;SDS011;41082;52.822;6.666;2022-08-11T12:49:41;1.33;;;0.30;;
55210;SDS011;41082;52.822;6.666;2022-08-11T12:52:34;1.63;;;0.30;;
55210;SDS011;41082;52.822;6.666;2022-08-11T12:57:58;2.58;;;0.30;;
55210;SDS011;41082;52.822;6.666;2022-08-11T13:00:41;2.15;;;0.30;;
55210;SDS011;41082;52.822;6.666;2022-08-11T13:03:27;2.33;;;0.25;;
55210;SDS011;41082;52.822;6.666;2022-08-11T13:06:12;2.97;;;0.40;;
55210;SDS011;41082;52.822;6.666;2022-08-11T13:08:38;1.65;;;0.38;;
55210;SDS011;41082;52.822;6.666;2022-08-11T13:11:05;0.77;;;0.30;;
55210;SDS011;41082;52.822;6.666;2022-08-11T13:13:51;0.70;;;0.40;;
55210;SDS011;41082;52.822;6.666;2022-08-11T13:16:21;2.90;;;0.37;;
55210;SDS011;41082;52.822;6.666;2022-08-11T13:18:48;4.20;;;1.02;;
55210;SDS011;41082;52.822;6.666;2022-08-11T13:21:15;0.90;;;0.30;;
55210;SDS011;41082;52.822;6.666;2022-08-11T13:23:42;2.58;;;0.32;;
55210;SDS011;41082;52.822;6.666;2022-08-11T13:26:08;1.77;;;0.50;;
55210;SDS011;41082;52.822;6.666;2022-08-11T13:28:35;4.00;;;0.30;;
55210;SDS011;41082;52.822;6.666;2022-08-11T13:31:02;3.70;;;0.38;;
55210;SDS011;41082;52.822;6.666;2022-08-11T13:36:13;4.93;;;0.43;;
55210;SDS011;41082;52.822;6.666;2022-08-11T13:41:09;1.63;;;0.30;;
55210;SDS011;41082;52.822;6.666;2022-08-11T13:43:54;2.47;;;0.45;;
55210;SDS011;41082;52.822;6.666;2022-08-11T13:46:21;3.90;;;0.55;;
55210;SDS011;41082;52.822;6.666;2022-08-11T13:48:52;1.30;;;0.30;;
55210;SDS011;41082;52.822;6.666;2022-08-11T13:51:19;1.98;;;0.40;;
55210;SDS011;41082;52.822;6.666;2022-08-11T13:54:00;2.03;;;0.30;;
55210;SDS011;41082;52.822;6.666;2022-08-11T13:57:05;4.40;;;0.50;;
55210;SDS011;41082;52.822;6.666;2022-08-11T13:59:32;2.83;;;0.25;;
55210;SDS011;41082;52.822;6.666;2022-08-11T14:02:00;4.53;;;0.40;;
55210;SDS011;41082;52.822;6.666;2022-08-11T14:05:12;17.15;;;0.80;;
55210;SDS011;41082;52.822;6.666;2022-08-11T14:07:21;1.05;;;0.20;;
55210;SDS011;41082;52.822;6.666;2022-08-11T14:09:52;2.15;;;0.40;;
55210;SDS011;41082;52.822;6.666;2022-08-11T14:12:22;2.72;;;0.40;;
55210;SDS011;41082;52.822;6.666;2022-08-11T14:15:21;3.13;;;0.70;;
55210;SDS011;41082;52.822;6.666;2022-08-11T14:17:52;4.25;;;1.05;;
55210;SDS011;41082;52.822;6.666;2022-08-11T14:20:22;2.90;;;0.50;;
55210;SDS011;41082;52.822;6.666;2022-08-11T14:22:48;3.25;;;0.65;;
55210;SDS011;41082;52.822;6.666;2022-08-11T14:25:15;1.77;;;0.45;;
55210;SDS011;41082;52.822;6.666;2022-08-11T14:27:44;4.13;;;0.40;;
55210;SDS011;41082;52.822;6.666;2022-08-11T14:30:13;4.18;;;0.50;;
55210;SDS011;41082;52.822;6.666;2022-08-11T14:32:59;2.50;;;0.40;;
55210;SDS011;41082;52.822;6.666;2022-08-11T14:35:26;4.82;;;0.50;;
55210;SDS011;41082;52.822;6.666;2022-08-11T14:37:52;3.30;;;0.40;;
55210;SDS011;41082;52.822;6.666;2022-08-11T14:40:20;3.13;;;0.38;;
55210;SDS011;41082;52.822;6.666;2022-08-11T14:43:04;3.88;;;0.77;;
55210;SDS011;41082;52.822;6.666;2022-08-11T14:45:50;4.15;;;0.30;;
55210;SDS011;41082;52.822;6.666;2022-08-11T14:48:34;3.13;;;0.40;;
55210;SDS011;41082;52.822;6.666;2022-08-11T14:51:01;2.90;;;0.30;;
55210;SDS011;41082;52.822;6.666;2022-08-11T14:53:29;5.55;;;0.40;;
55210;SDS011;41082;52.822;6.666;2022-08-11T14:55:55;2.92;;;0.40;;
55210;SDS011;41082;52.822;6.666;2022-08-11T14:58:40;4.30;;;0.40;;
55210;SDS011;41082;52.822;6.666;2022-08-11T15:01:07;1.80;;;0.30;;
55210;SDS011;41082;52.822;6.666;2022-08-11T15:03:53;3.00;;;0.32;;
55210;SDS011;41082;52.822;6.666;2022-08-11T15:06:21;4.82;;;0.50;;
55210;SDS011;41082;52.822;6.666;2022-08-11T15:08:50;4.15;;;0.30;;
55210;SDS011;41082;52.822;6.666;2022-08-11T15:11:22;0.68;;;0.30;;
55210;SDS011;41082;52.822;6.666;2022-08-11T15:14:09;1.65;;;0.50;;
55210;SDS011;41082;52.822;6.666;2022-08-11T15:16:36;2.47;;;0.40;;
55210;SDS011;41082;52.822;6.666;2022-08-11T15:19:23;3.20;;;0.40;;
55210;SDS011;41082;52.822;6.666;2022-08-11T15:21:50;1.10;;;0.30;;
55210;SDS011;41082;52.822;6.666;2022-08-11T15:24:34;4.85;;;0.35;;
55210;SDS011;41082;52.822;6.666;2022-08-11T15:27:01;5.40;;;0.22;;
55210;SDS011;41082;52.822;6.666;2022-08-11T15:29:54;0.85;;;0.30;;
55210;SDS011;41082;52.822;6.666;2022-08-11T15:32:40;1.42;;;0.40;;
55210;SDS011;41082;52.822;6.666;2022-08-11T15:35:26;7.05;;;0.45;;
55210;SDS011;41082;52.822;6.666;2022-08-11T15:38:11;2.28;;;0.40;;
55210;SDS011;41082;52.822;6.666;2022-08-11T15:40:39;0.90;;;0.20;;
55210;SDS011;41082;52.822;6.666;2022-08-11T15:43:27;1.25;;;0.30;;
55210;SDS011;41082;52.822;6.666;2022-08-11T15:46:40;5.13;;;0.30;;
55210;SDS011;41082;52.822;6.666;2022-08-11T15:49:13;6.20;;;0.50;;
55210;SDS011;41082;52.822;6.666;2022-08-11T15:51:49;0.85;;;0.20;;
55210;SDS011;41082;52.822;6.666;2022-08-11T15:54:25;2.63;;;0.30;;
55210;SDS011;41082;52.822;6.666;2022-08-11T15:59:22;3.30;;;0.30;;
55210;SDS011;41082;52.822;6.666;2022-08-11T16:02:08;7.55;;;0.82;;
55210;SDS011;41082;52.822;6.666;2022-08-11T16:04:57;2.58;;;0.35;;
55210;SDS011;41082;52.822;6.666;2022-08-11T16:07:26;2.30;;;0.30;;
55210;SDS011;41082;52.822;6.666;2022-08-11T16:09:59;2.45;;;0.40;;
55210;SDS011;41082;52.822;6.666;2022-08-11T16:12:36;2.13;;;0.30;;
55210;SDS011;41082;52.822;6.666;2022-08-11T16:15:05;2.15;;;0.30;;
55210;SDS011;41082;52.822;6.666;2022-08-11T16:17:53;1.80;;;0.43;;
55210;SDS011;41082;52.822;6.666;2022-08-11T16:20:23;2.70;;;0.30;;
55210;SDS011;41082;52.822;6.666;2022-08-11T16:22:51;4.22;;;0.40;;
55210;SDS011;41082;52.822;6.666;2022-08-11T16:25:20;0.70;;;0.30;;
55210;SDS011;41082;52.822;6.666;2022-08-11T16:27:52;3.08;;;0.43;;
55210;SDS011;41082;52.822;6.666;2022-08-11T16:30:33;3.83;;;0.30;;
55210;SDS011;41082;52.822;6.666;2022-08-11T16:33:01;1.95;;;0.25;;
55210;SDS011;41082;52.822;6.666;2022-08-11T16:35:34;2.13;;;0.30;;
55210;SDS011;41082;52.822;6.666;2022-08-11T16:38:22;3.00;;;0.30;;
55210;SDS011;41082;52.822;6.666;2022-08-11T16:41:04;1.88;;;0.30;;
55210;SDS011;41082;52.822;6.666;2022-08-11T16:43:33;2.35;;;0.30;;
55210;SDS011;41082;52.822;6.666;2022-08-11T16:46:21;1.50;;;0.30;;
55210;SDS011;41082;52.822;6.666;2022-08-11T16:49:09;1.30;;;0.30;;
55210;SDS011;41082;52.822;6.666;2022-08-11T16:51:39;1.52;;;0.32;;
55210;SDS011;41082;52.822;6.666;2022-08-11T16:54:05;1.05;;;0.35;;
55210;SDS011;41082;52.822;6.666;2022-08-11T16:56:52;3.13;;;0.60;;
55210;SDS011;41082;52.822;6.666;2022-08-11T16:59:30;5.07;;;0.50;;
55210;SDS011;41082;52.822;6.666;2022-08-11T17:02:22;4.03;;;0.35;;
55210;SDS011;41082;52.822;6.666;2022-08-11T17:05:09;2.78;;;0.40;;
55210;SDS011;41082;52.822;6.666;2022-08-11T17:07:56;4.00;;;0.40;;
55210;SDS011;41082;52.822;6.666;2022-08-11T17:10:50;0.88;;;0.30;;
55210;SDS011;41082;52.822;6.666;2022-08-11T17:13:41;3.50;;;0.40;;
55210;SDS011;41082;52.822;6.666;2022-08-11T17:16:27;1.63;;;0.30;;
55210;SDS011;41082;52.822;6.666;2022-08-11T17:19:02;5.18;;;0.40;;
55210;SDS011;41082;52.822;6.666;2022-08-11T17:21:40;2.60;;;0.50;;
55210;SDS011;41082;52.822;6.666;2022-08-11T17:24:30;2.88;;;0.70;;
55210;SDS011;41082;52.822;6.666;2022-08-11T17:26:59;5.75;;;0.60;;
55210;SDS011;41082;52.822;6.666;2022-08-11T17:29:33;4.07;;;0.35;;
55210;SDS011;41082;52.822;6.666;2022-08-11T17:32:00;1.75;;;0.30;;
55210;SDS011;41082;52.822;6.666;2022-08-11T17:34:47;3.70;;;0.50;;
55210;SDS011;41082;52.822;6.666;2022-08-11T17:37:34;2.00;;;0.47;;
55210;SDS011;41082;52.822;6.666;2022-08-11T17:40:04;1.85;;;0.40;;
55210;SDS011;41082;52.822;6.666;2022-08-11T17:42:33;2.60;;;0.50;;
55210;SDS011;41082;52.822;6.666;2022-08-11T17:45:18;3.70;;;0.50;;
55210;SDS011;41082;52.822;6.666;2022-08-11T17:48:04;3.72;;;0.80;;
55210;SDS011;41082;52.822;6.666;2022-08-11T17:53:58;8.98;;;1.27;;
55210;SDS011;41082;52.822;6.666;2022-08-11T17:56:44;5.25;;;0.50;;
55210;SDS011;41082;52.822;6.666;2022-08-11T17:59:29;3.67;;;0.65;;
55210;SDS011;41082;52.822;6.666;2022-08-11T18:02:16;3.00;;;0.50;;
55210;SDS011;41082;52.822;6.666;2022-08-11T18:05:17;4.18;;;0.50;;
55210;SDS011;41082;52.822;6.666;2022-08-11T18:07:45;3.53;;;0.75;;
55210;SDS011;41082;52.822;6.666;2022-08-11T18:10:32;3.75;;;0.50;;
55210;SDS011;41082;52.822;6.666;2022-08-11T18:13:19;2.78;;;0.43;;
55210;SDS011;41082;52.822;6.666;2022-08-11T18:16:06;4.82;;;0.70;;
55210;SDS011;41082;52.822;6.666;2022-08-11T18:18:51;5.85;;;0.50;;
55210;SDS011;41082;52.822;6.666;2022-08-11T18:21:36;4.82;;;0.40;;
55210;SDS011;41082;52.822;6.666;2022-08-11T18:24:23;5.07;;;0.80;;
55210;SDS011;41082;52.822;6.666;2022-08-11T18:27:10;4.20;;;0.60;;
55210;SDS011;41082;52.822;6.666;2022-08-11T18:29:57;3.60;;;0.70;;
55210;SDS011;41082;52.822;6.666;2022-08-11T18:32:44;2.80;;;0.63;;
55210;SDS011;41082;52.822;6.666;2022-08-11T18:35:30;4.47;;;0.52;;
55210;SDS011;41082;52.822;6.666;2022-08-11T18:38:16;4.03;;;0.63;;
55210;SDS011;41082;52.822;6.666;2022-08-11T18:41:01;2.22;;;0.50;;
55210;SDS011;41082;52.822;6.666;2022-08-11T18:43:48;3.25;;;0.70;;
55210;SDS011;41082;52.822;6.666;2022-08-11T18:46:35;2.22;;;0.60;;
55210;SDS011;41082;52.822;6.666;2022-08-11T18:49:22;1.88;;;0.60;;
55210;SDS011;41082;52.822;6.666;2022-08-11T18:52:10;11.38;;;0.82;;
55210;SDS011;41082;52.822;6.666;2022-08-11T18:54:57;4.53;;;0.55;;
55210;SDS011;41082;52.822;6.666;2022-08-11T18:57:45;2.22;;;0.50;;
55210;SDS011;41082;52.822;6.666;2022-08-11T19:00:32;2.22;;;0.40;;
55210;SDS011;41082;52.822;6.666;2022-08-11T19:03:18;3.20;;;0.40;;
55210;SDS011;41082;52.822;6.666;2022-08-11T19:06:04;4.70;;;0.63;;
55210;SDS011;41082;52.822;6.666;2022-08-11T19:08:51;2.22;;;0.50;;
55210;SDS011;41082;52.822;6.666;2022-08-11T19:11:39;4.15;;;0.45;;
55210;SDS011;41082;52.822;6.666;2022-08-11T19:14:25;3.08;;;0.47;;
55210;SDS011;41082;52.822;6.666;2022-08-11T19:17:12;1.02;;;0.47;;